createdAt,value
2023-04-16T00:00:07.872Z,101700.38
2023-04-16T00:01:14.984Z,101695.16
2023-04-16T00:02:16.568Z,101689.91
2023-04-16T00:03:20.931Z,101692.50
2023-04-16T00:04:22.596Z,101693.41
2023-04-16T00:05:24.229Z,101694.28
2023-04-16T00:06:25.873Z,101703.84
2023-04-16T00:07:27.292Z,101701.25
2023-04-16T00:08:31.186Z,101693.41
2023-04-16T00:09:32.770Z,101696.88
2023-04-16T00:10:37.164Z,101694.28
2023-04-16T00:11:38.692Z,101696.94
2023-04-16T00:12:40.459Z,101696.03
2023-04-16T00:13:42.139Z,101693.44
2023-04-16T00:14:43.897Z,101694.31
2023-04-16T00:15:45.466Z,101698.69
2023-04-16T00:16:47.144Z,101702.16
2023-04-16T00:17:48.851Z,101701.31
2023-04-16T00:18:55.596Z,101697.81
2023-04-16T00:19:57.142Z,101696.94
2023-04-16T00:21:00.971Z,101704.78
2023-04-16T00:22:02.523Z,101699.56
2023-04-16T00:23:04.120Z,101703.94
2023-04-16T00:24:05.876Z,101695.25
2023-04-16T00:25:07.552Z,101698.69
2023-04-16T00:26:09.452Z,101692.63
2023-04-16T00:27:11.229Z,101696.97
2023-04-16T00:28:12.706Z,101695.25
2023-04-16T00:29:16.273Z,101701.31
2023-04-16T00:30:17.749Z,101697.84
2023-04-16T00:31:27.938Z,101692.63
2023-04-16T00:32:31.093Z,101698.72
2023-04-16T00:33:32.736Z,101697.00
2023-04-16T00:34:35.586Z,101700.47
2023-04-16T00:35:37.155Z,101695.25
2023-04-16T00:36:40.953Z,101697.00
2023-04-16T00:37:42.370Z,101698.75
2023-04-16T00:38:43.825Z,101702.22
2023-04-16T00:39:49.990Z,101701.38
2023-04-16T00:40:51.488Z,101700.53
2023-04-16T00:41:52.909Z,101696.16
2023-04-16T00:42:54.610Z,101694.41
2023-04-16T00:43:56.334Z,101703.13
2023-04-16T00:44:57.741Z,101704.88
2023-04-16T00:45:59.551Z,101706.59
2023-04-16T00:47:04.021Z,101698.78
2023-04-16T00:48:05.904Z,101702.28
2023-04-16T00:49:07.735Z,101704.00
2023-04-16T00:50:11.896Z,101697.91
2023-04-16T00:51:13.515Z,101703.13
2023-04-16T00:52:15.869Z,101697.91
2023-04-16T00:53:17.520Z,101701.38
2023-04-16T00:54:19.560Z,101702.28
2023-04-16T00:55:21.466Z,101705.75
2023-04-16T00:56:24.512Z,101697.91
2023-04-16T00:57:26.995Z,101699.66
2023-04-16T00:58:32.116Z,101702.28
2023-04-16T00:59:33.727Z,101697.06
2023-04-16T01:00:35.423Z,101697.91
2023-04-16T01:01:37.144Z,101700.53
2023-04-16T01:02:39.309Z,101698.78
2023-04-16T01:03:43.808Z,101694.44
2023-04-16T01:04:49.771Z,101697.06
2023-04-16T01:05:51.569Z,101697.91
2023-04-16T01:06:53.159Z,101698.78
2023-04-16T01:07:58.482Z,101696.16
2023-04-16T01:09:02.288Z,101703.16
2023-04-16T01:10:04.142Z,101702.28
2023-04-16T01:11:06.058Z,101702.28
2023-04-16T01:12:07.640Z,101698.81
2023-04-16T01:13:09.756Z,101700.53
2023-04-16T01:14:11.898Z,101702.28
2023-04-16T01:15:13.410Z,101704.91
2023-04-16T01:16:16.087Z,101702.28
2023-04-16T01:17:17.595Z,101698.81
2023-04-16T01:18:20.394Z,101699.69
2023-04-16T01:19:22.103Z,101700.53
2023-04-16T01:20:23.709Z,101709.22
2023-04-16T01:21:28.189Z,101704.00
2023-04-16T01:22:30.130Z,101704.88
2023-04-16T01:23:31.711Z,101700.53
2023-04-16T01:24:35.688Z,101703.13
2023-04-16T01:25:37.688Z,101706.59
2023-04-16T01:26:39.456Z,101696.16
2023-04-16T01:27:41.675Z,101704.84
2023-04-16T01:28:45.844Z,101698.78
2023-04-16T01:29:47.445Z,101696.16
2023-04-16T01:30:53.696Z,101700.53
2023-04-16T01:32:15.775Z,101700.53
2023-04-16T01:33:19.038Z,101698.78
2023-04-16T01:34:20.732Z,101702.25
2023-04-16T01:35:22.288Z,101710.06
2023-04-16T01:36:26.899Z,101701.38
2023-04-16T01:37:29.814Z,101705.75
2023-04-16T01:38:31.364Z,101705.75
2023-04-16T01:39:33.722Z,101711.81
2023-04-16T01:40:36.371Z,101708.34
2023-04-16T01:41:37.971Z,101712.72
2023-04-16T01:42:39.613Z,101711.81
2023-04-16T01:43:42.703Z,101712.72
2023-04-16T01:44:44.572Z,101714.44
2023-04-16T01:45:46.263Z,101712.72
2023-04-16T01:46:48.035Z,101723.16
2023-04-16T01:47:52.435Z,101718.78
2023-04-16T01:48:57.458Z,101724.88
2023-04-16T01:49:59.692Z,101718.81
2023-04-16T01:51:01.313Z,101722.28
2023-04-16T01:52:03.045Z,101722.31
2023-04-16T01:53:05.281Z,101724.91
2023-04-16T01:54:06.900Z,101722.31
2023-04-16T01:55:08.617Z,101731.91
2023-04-16T01:56:10.370Z,101729.28
2023-04-16T01:57:11.958Z,101729.28
2023-04-16T01:58:14.833Z,101727.53
2023-04-16T01:59:16.971Z,101726.69
2023-04-16T02:00:18.696Z,101733.63
2023-04-16T02:01:20.527Z,101730.16
2023-04-16T02:02:28.188Z,101723.22
2023-04-16T02:03:31.387Z,101732.78
2023-04-16T02:04:33.400Z,101725.84
2023-04-16T02:05:35.456Z,101723.22
2023-04-16T02:06:37.279Z,101727.59
2023-04-16T02:07:38.802Z,101727.59
2023-04-16T02:08:41.613Z,101730.19
2023-04-16T02:09:43.348Z,101726.69
2023-04-16T02:10:47.893Z,101721.47
2023-04-16T02:11:50.279Z,101724.97
2023-04-16T02:12:52.201Z,101730.22
2023-04-16T02:13:53.847Z,101726.72
2023-04-16T02:14:55.788Z,101729.34
2023-04-16T02:16:00.219Z,101732.81
2023-04-16T02:17:24.989Z,101724.97
2023-04-16T02:18:40.241Z,101730.22
2023-04-16T02:19:41.830Z,101730.22
2023-04-16T02:20:46.047Z,101739.78
2023-04-16T02:21:48.537Z,101731.06
2023-04-16T02:22:50.993Z,101732.81
2023-04-16T02:23:55.271Z,101731.09
2023-04-16T02:25:01.746Z,101735.44
2023-04-16T02:26:03.744Z,101733.72
2023-04-16T02:27:05.662Z,101736.31
2023-04-16T02:28:08.539Z,101742.41
2023-04-16T02:29:13.032Z,101742.41
2023-04-16T02:30:18.913Z,101745.88
2023-04-16T02:31:22.549Z,101739.78
2023-04-16T02:32:24.665Z,101742.41
2023-04-16T02:33:26.765Z,101738.94
2023-04-16T02:34:36.426Z,101738.94
2023-04-16T02:35:38.569Z,101743.28
2023-04-16T02:36:40.511Z,101733.72
2023-04-16T02:37:41.989Z,101735.44
2023-04-16T02:38:45.851Z,101733.72
2023-04-16T02:39:47.500Z,101734.56
2023-04-16T02:40:48.956Z,101725.00
2023-04-16T02:41:53.213Z,101731.09
2023-04-16T02:42:55.721Z,101738.03
2023-04-16T02:43:57.332Z,101732.81
2023-04-16T02:44:59.002Z,101743.28
2023-04-16T02:46:00.785Z,101734.56
2023-04-16T02:47:02.380Z,101735.44
2023-04-16T02:48:04.083Z,101740.69
2023-04-16T02:49:05.778Z,101736.31
2023-04-16T02:50:07.741Z,101737.19
2023-04-16T02:51:09.413Z,101733.72
2023-04-16T02:52:10.847Z,101737.19
2023-04-16T02:53:12.285Z,101736.31
2023-04-16T02:54:13.711Z,101732.84
2023-04-16T02:55:16.929Z,101745.03
2023-04-16T02:56:18.356Z,101732.88
2023-04-16T02:57:20.191Z,101746.78
2023-04-16T02:58:22.679Z,101738.94
2023-04-16T02:59:24.402Z,101741.56
2023-04-16T03:00:26.143Z,101740.69
2023-04-16T03:01:31.013Z,101739.81
2023-04-16T03:02:32.728Z,101738.94
2023-04-16T03:03:34.548Z,101738.09
2023-04-16T03:04:36.137Z,101741.56
2023-04-16T03:05:40.170Z,101738.94
2023-04-16T03:06:41.967Z,101740.69
2023-04-16T03:07:43.575Z,101742.41
2023-04-16T03:08:45.617Z,101738.09
2023-04-16T03:09:47.167Z,101736.34
2023-04-16T03:10:48.625Z,101739.81
2023-04-16T03:11:50.369Z,101744.16
2023-04-16T03:12:51.819Z,101745.06
2023-04-16T03:13:53.811Z,101739.84
2023-04-16T03:14:55.445Z,101738.09
2023-04-16T03:15:56.906Z,101745.94
2023-04-16T03:16:59.618Z,101745.94
2023-04-16T03:18:01.194Z,101745.06
2023-04-16T03:19:03.680Z,101741.59
2023-04-16T03:20:09.235Z,101746.81
2023-04-16T03:21:10.731Z,101752.03
2023-04-16T03:22:15.042Z,101757.25
2023-04-16T03:23:16.727Z,101755.50
2023-04-16T03:24:18.999Z,101746.81
2023-04-16T03:25:26.184Z,101748.53
2023-04-16T03:26:27.766Z,101751.16
2023-04-16T03:27:30.442Z,101752.03
2023-04-16T03:28:32.211Z,101747.69
2023-04-16T03:29:36.229Z,101745.06
2023-04-16T03:30:38.584Z,101751.16
2023-04-16T03:31:41.611Z,101747.69
2023-04-16T03:32:43.246Z,101747.69
2023-04-16T03:33:45.847Z,101748.53
2023-04-16T03:34:50.212Z,101748.53
2023-04-16T03:35:58.570Z,101751.16
2023-04-16T03:37:05.747Z,101746.78
2023-04-16T03:38:07.445Z,101750.28
2023-04-16T03:39:12.433Z,101748.53
2023-04-16T03:40:14.513Z,101745.06
2023-04-16T03:41:17.043Z,101754.63
2023-04-16T03:42:18.715Z,101752.00
2023-04-16T03:43:20.753Z,101752.91
2023-04-16T03:44:25.054Z,101753.75
2023-04-16T03:45:26.585Z,101749.41
2023-04-16T03:46:28.309Z,101759.84
2023-04-16T03:47:30.053Z,101759.84
2023-04-16T03:48:35.708Z,101754.63
2023-04-16T03:49:37.203Z,101754.63
2023-04-16T03:50:38.799Z,101758.97
2023-04-16T03:51:42.812Z,101758.97
2023-04-16T03:52:45.037Z,101752.91
2023-04-16T03:53:46.890Z,101754.63
2023-04-16T03:54:49.748Z,101752.91
2023-04-16T03:56:02.425Z,101749.38
2023-04-16T03:57:04.592Z,101752.91
2023-04-16T03:58:06.827Z,101754.63
2023-04-16T03:59:09.385Z,101756.38
2023-04-16T04:00:11.472Z,101752.91
2023-04-16T04:01:16.359Z,101752.91
2023-04-16T04:02:17.993Z,101753.75
2023-04-16T04:03:20.208Z,101757.22
2023-04-16T04:04:24.081Z,101756.38
2023-04-16T04:05:26.042Z,101756.38
2023-04-16T04:06:27.576Z,101759.84
2023-04-16T04:07:29.454Z,101758.13
2023-04-16T04:08:32.145Z,101754.66
2023-04-16T04:09:34.187Z,101765.09
2023-04-16T04:10:38.027Z,101752.03
2023-04-16T04:11:40.933Z,101763.34
2023-04-16T04:12:42.750Z,101763.34
2023-04-16T04:13:44.568Z,101755.50
2023-04-16T04:14:46.175Z,101757.28
2023-04-16T04:15:47.613Z,101753.75
2023-04-16T04:16:51.474Z,101759.88
2023-04-16T04:17:53.329Z,101755.53
2023-04-16T04:18:55.645Z,101754.66
2023-04-16T04:20:01.190Z,101762.50
2023-04-16T04:21:06.093Z,101763.34
2023-04-16T04:22:08.467Z,101765.97
2023-04-16T04:23:12.105Z,101761.63
2023-04-16T04:24:13.676Z,101759.03
2023-04-16T04:25:15.490Z,101760.78
2023-04-16T04:26:18.884Z,101762.50
2023-04-16T04:27:20.778Z,101756.41
2023-04-16T04:28:22.450Z,101762.50
2023-04-16T04:29:24.020Z,101762.50
2023-04-16T04:30:25.926Z,101766.00
2023-04-16T04:31:29.030Z,101761.63
2023-04-16T04:32:31.357Z,101767.75
2023-04-16T04:33:33.433Z,101766.88
2023-04-16T04:34:35.351Z,101763.38
2023-04-16T04:35:37.521Z,101767.75
2023-04-16T04:36:39.169Z,101772.09
2023-04-16T04:37:41.029Z,101770.38
2023-04-16T04:38:48.819Z,101774.69
2023-04-16T04:39:50.588Z,101773.00
2023-04-16T04:40:52.914Z,101775.59
2023-04-16T04:41:57.337Z,101771.22
2023-04-16T04:42:58.972Z,101772.97
2023-04-16T04:44:00.817Z,101775.59
2023-04-16T04:45:02.396Z,101781.69
2023-04-16T04:46:06.483Z,101776.47
2023-04-16T04:47:08.496Z,101780.81
2023-04-16T04:48:10.237Z,101772.09
2023-04-16T04:49:12.158Z,101773.84
2023-04-16T04:50:13.738Z,101779.94
2023-04-16T04:51:16.224Z,101778.22
2023-04-16T04:52:20.761Z,101782.53
2023-04-16T04:53:22.662Z,101779.94
2023-04-16T04:54:24.441Z,101785.16
2023-04-16T04:55:28.246Z,101783.41
2023-04-16T04:56:30.673Z,101786.91
2023-04-16T04:57:32.191Z,101790.38
2023-04-16T04:58:34.234Z,101788.66
2023-04-16T04:59:36.748Z,101790.38
2023-04-16T05:00:38.372Z,101795.59
2023-04-16T05:01:40.046Z,101788.66
2023-04-16T05:02:41.776Z,101797.38
2023-04-16T05:03:43.971Z,101791.28
2023-04-16T05:04:45.882Z,101786.91
2023-04-16T05:05:47.553Z,101788.66
2023-04-16T05:06:50.427Z,101791.28
2023-04-16T05:07:53.493Z,101793.03
2023-04-16T05:08:54.931Z,101782.56
2023-04-16T05:09:56.493Z,101791.28
2023-04-16T05:10:57.934Z,101788.66
2023-04-16T05:11:59.433Z,101790.41
2023-04-16T05:13:01.111Z,101795.66
2023-04-16T05:14:02.558Z,101795.66
2023-04-16T05:15:04.473Z,101786.06
2023-04-16T05:16:06.210Z,101793.03
2023-04-16T05:17:08.094Z,101792.16
2023-04-16T05:18:09.868Z,101793.88
2023-04-16T05:19:13.199Z,101793.03
2023-04-16T05:20:15.417Z,101792.16
2023-04-16T05:21:16.940Z,101795.66
2023-04-16T05:22:19.060Z,101793.03
2023-04-16T05:23:24.272Z,101794.78
2023-04-16T05:24:25.733Z,101800.88
2023-04-16T05:25:27.141Z,101802.63
2023-04-16T05:26:28.554Z,101800.88
2023-04-16T05:27:32.076Z,101806.09
2023-04-16T05:28:33.996Z,101804.38
2023-04-16T05:29:35.619Z,101800.00
2023-04-16T05:30:37.162Z,101805.25
2023-04-16T05:31:38.633Z,101807.00
2023-04-16T05:32:41.280Z,101810.47
2023-04-16T05:33:42.811Z,101813.09
2023-04-16T05:34:44.400Z,101810.47
2023-04-16T05:35:45.853Z,101809.59
2023-04-16T05:36:47.290Z,101808.75
2023-04-16T05:37:48.672Z,101818.34
2023-04-16T05:38:50.156Z,101811.38
2023-04-16T05:39:51.642Z,101815.72
2023-04-16T05:40:53.072Z,101820.97
2023-04-16T05:41:54.646Z,101822.72
2023-04-16T05:42:56.364Z,101814.88
2023-04-16T05:43:58.092Z,101818.34
2023-04-16T05:45:00.042Z,101823.56
2023-04-16T05:46:01.619Z,101822.72
2023-04-16T05:47:03.063Z,101822.72
2023-04-16T05:48:04.623Z,101827.94
2023-04-16T05:49:06.057Z,101827.06
2023-04-16T05:50:07.700Z,101828.81
2023-04-16T05:51:09.315Z,101834.91
2023-04-16T05:52:10.764Z,101825.31
2023-04-16T05:53:14.024Z,101830.56
2023-04-16T05:54:15.726Z,101829.69
2023-04-16T05:55:17.141Z,101829.69
2023-04-16T05:56:20.939Z,101834.91
2023-04-16T05:57:22.459Z,101838.41
2023-04-16T05:58:26.500Z,101831.44
2023-04-16T05:59:28.063Z,101834.91
2023-04-16T06:00:32.572Z,101840.16
2023-04-16T06:01:34.552Z,101843.63
2023-04-16T06:02:37.517Z,101843.66
2023-04-16T06:03:41.494Z,101840.16
2023-04-16T06:04:43.771Z,101838.44
2023-04-16T06:05:45.512Z,101838.44
2023-04-16T06:06:46.978Z,101841.91
2023-04-16T06:07:48.484Z,101842.75
2023-04-16T06:08:50.227Z,101836.66
2023-04-16T06:09:51.791Z,101840.19
2023-04-16T06:10:53.621Z,101841.91
2023-04-16T06:11:55.576Z,101843.66
2023-04-16T06:12:57.037Z,101840.16
2023-04-16T06:13:58.507Z,101844.53
2023-04-16T06:15:00.353Z,101842.78
2023-04-16T06:16:02.953Z,101844.53
2023-04-16T06:17:04.555Z,101841.03
2023-04-16T06:18:06.006Z,101851.50
2023-04-16T06:19:09.724Z,101853.25
2023-04-16T06:20:11.929Z,101848.88
2023-04-16T06:21:13.509Z,101853.25
2023-04-16T06:22:15.032Z,101860.25
2023-04-16T06:23:16.669Z,101855.00
2023-04-16T06:24:18.484Z,101855.00
2023-04-16T06:25:19.960Z,101856.72
2023-04-16T06:26:21.589Z,101850.63
2023-04-16T06:27:23.123Z,101861.97
2023-04-16T06:28:24.716Z,101861.09
2023-04-16T06:29:37.041Z,101857.63
2023-04-16T06:30:44.428Z,101859.38
2023-04-16T06:31:48.635Z,101856.75
2023-04-16T06:32:50.261Z,101855.88
2023-04-16T06:33:51.711Z,101857.63
2023-04-16T06:34:53.239Z,101868.06
2023-04-16T06:35:55.854Z,101868.97
2023-04-16T06:36:57.306Z,101867.22
2023-04-16T06:37:58.854Z,101867.22
2023-04-16T06:39:00.449Z,101862.84
2023-04-16T06:40:02.148Z,101868.97
2023-04-16T06:41:03.647Z,101862.84
2023-04-16T06:42:05.398Z,101867.22
2023-04-16T06:43:06.920Z,101867.22
2023-04-16T06:44:08.488Z,101873.34
2023-04-16T06:45:10.496Z,101869.84
2023-04-16T06:46:12.056Z,101873.34
2023-04-16T06:47:13.616Z,101870.72
2023-04-16T06:48:16.662Z,101872.47
2023-04-16T06:49:18.500Z,101873.34
2023-04-16T06:50:20.472Z,101869.84
2023-04-16T06:51:22.169Z,101873.34
2023-04-16T06:52:23.654Z,101872.47
2023-04-16T06:53:25.195Z,101878.56
2023-04-16T06:54:26.693Z,101870.72
2023-04-16T06:55:28.109Z,101876.84
2023-04-16T06:56:29.707Z,101873.34
2023-04-16T06:57:31.221Z,101877.69
2023-04-16T06:58:32.958Z,101878.56
2023-04-16T06:59:34.592Z,101876.84
2023-04-16T07:00:36.105Z,101869.84
2023-04-16T07:01:37.698Z,101875.94
2023-04-16T07:02:41.541Z,101871.63
2023-04-16T07:03:43.199Z,101871.63
2023-04-16T07:04:44.970Z,101875.94
2023-04-16T07:05:46.779Z,101879.47
2023-04-16T07:06:48.179Z,101880.31
2023-04-16T07:07:49.661Z,101884.69
2023-04-16T07:08:51.117Z,101881.22
2023-04-16T07:09:52.718Z,101876.84
2023-04-16T07:10:54.557Z,101881.22
2023-04-16T07:11:56.073Z,101874.25
2023-04-16T07:12:57.618Z,101882.09
2023-04-16T07:14:01.482Z,101882.13
2023-04-16T07:15:03.013Z,101884.75
2023-04-16T07:16:04.608Z,101892.59
2023-04-16T07:17:06.090Z,101888.22
2023-04-16T07:18:07.666Z,101892.56
2023-04-16T07:19:09.711Z,101889.09
2023-04-16T07:20:11.433Z,101889.97
2023-04-16T07:21:12.945Z,101889.97
2023-04-16T07:22:14.488Z,101896.94
2023-04-16T07:23:15.984Z,101895.19
2023-04-16T07:24:17.977Z,101898.69
2023-04-16T07:25:19.449Z,101896.06
2023-04-16T07:26:20.898Z,101896.06
2023-04-16T07:27:22.328Z,101901.28
2023-04-16T07:28:25.236Z,101901.28
2023-04-16T07:29:26.640Z,101904.81
2023-04-16T07:30:36.085Z,101910.03
2023-04-16T07:31:38.516Z,101903.91
2023-04-16T07:32:42.377Z,101899.56
2023-04-16T07:33:43.884Z,101902.19
2023-04-16T07:34:45.729Z,101896.94
2023-04-16T07:35:47.550Z,101896.06
2023-04-16T07:36:51.034Z,101903.91
2023-04-16T07:37:52.636Z,101903.91
2023-04-16T07:38:54.083Z,101901.31
2023-04-16T07:39:57.589Z,101903.03
2023-04-16T07:40:59.156Z,101911.78
2023-04-16T07:42:00.786Z,101904.78
2023-04-16T07:43:02.260Z,101906.53
2023-04-16T07:44:03.860Z,101903.06
2023-04-16T07:45:08.261Z,101905.69
2023-04-16T07:46:12.027Z,101910.06
2023-04-16T07:47:13.483Z,101910.03
2023-04-16T07:48:14.937Z,101915.28
2023-04-16T07:49:16.395Z,101915.28
2023-04-16T07:50:21.861Z,101911.81
2023-04-16T07:51:23.661Z,101924.00
2023-04-16T07:52:25.473Z,101917.88
2023-04-16T07:53:26.949Z,101920.50
2023-04-16T07:54:29.184Z,101914.41
2023-04-16T07:55:30.794Z,101920.50
2023-04-16T07:56:32.474Z,101925.75
2023-04-16T07:57:36.204Z,101925.75
2023-04-16T07:58:37.699Z,101922.25
2023-04-16T07:59:42.269Z,101922.25
2023-04-16T08:00:43.724Z,101922.25
2023-04-16T08:01:45.269Z,101925.72
2023-04-16T08:02:49.009Z,101930.97
2023-04-16T08:03:51.129Z,101923.13
2023-04-16T08:04:58.180Z,101934.47
2023-04-16T08:05:59.802Z,101935.34
2023-04-16T08:07:01.233Z,101930.97
2023-04-16T08:08:05.354Z,101926.59
2023-04-16T08:09:06.882Z,101939.69
2023-04-16T08:10:11.133Z,101939.69
2023-04-16T08:11:12.605Z,101938.84
2023-04-16T08:12:14.122Z,101936.22
2023-04-16T08:13:15.772Z,101937.09
2023-04-16T08:14:17.497Z,101940.59
2023-04-16T08:15:19.418Z,101935.34
2023-04-16T08:16:21.165Z,101941.44
2023-04-16T08:17:22.868Z,101938.81
2023-04-16T08:18:24.503Z,101938.81
2023-04-16T08:19:25.942Z,101942.34
2023-04-16T08:20:27.558Z,101944.09
2023-04-16T08:21:29.389Z,101939.72
2023-04-16T08:22:33.475Z,101937.94
2023-04-16T08:23:35.063Z,101941.47
2023-04-16T08:24:36.490Z,101942.31
2023-04-16T08:25:37.987Z,101938.84
2023-04-16T08:26:39.567Z,101945.81
2023-04-16T08:27:41.131Z,101945.81
2023-04-16T08:28:42.569Z,101937.97
2023-04-16T08:29:44.604Z,101940.59
2023-04-16T08:30:46.315Z,101940.59
2023-04-16T08:31:47.899Z,101951.94
2023-04-16T08:32:50.238Z,101950.19
2023-04-16T08:33:54.353Z,101948.44
2023-04-16T08:34:56.189Z,101953.66
2023-04-16T08:35:57.662Z,101952.81
2023-04-16T08:36:59.424Z,101951.94
2023-04-16T08:38:02.371Z,101953.66
2023-04-16T08:39:04.444Z,101956.28
2023-04-16T08:40:06.333Z,101960.66
2023-04-16T08:41:09.586Z,101952.78
2023-04-16T08:42:30.674Z,101966.78
2023-04-16T08:43:37.623Z,101963.28
2023-04-16T08:44:42.457Z,101965.91
2023-04-16T08:45:44.030Z,101969.38
2023-04-16T08:46:46.509Z,101972.00
2023-04-16T08:47:49.406Z,101968.53
2023-04-16T08:48:54.820Z,101967.66
2023-04-16T08:49:58.858Z,101979.84
2023-04-16T08:51:01.659Z,101972.00
2023-04-16T08:52:06.131Z,101972.03
2023-04-16T08:53:10.580Z,101974.63
2023-04-16T08:54:16.983Z,101974.63
2023-04-16T08:55:19.800Z,101976.34
2023-04-16T08:56:23.143Z,101978.97
2023-04-16T08:57:27.028Z,101982.50
2023-04-16T08:58:29.522Z,101981.59
2023-04-16T08:59:31.126Z,101978.13
2023-04-16T09:00:33.864Z,101988.59
2023-04-16T09:01:35.765Z,101979.84
2023-04-16T09:02:38.365Z,101982.47
2023-04-16T09:03:41.549Z,101996.47
2023-04-16T09:04:43.782Z,101988.59
2023-04-16T09:05:46.398Z,101983.38
2023-04-16T09:06:48.525Z,101985.09
2023-04-16T09:07:50.519Z,101989.47
2023-04-16T09:08:54.466Z,101985.09
2023-04-16T09:09:57.989Z,101987.72
2023-04-16T09:10:59.595Z,101984.22
2023-04-16T09:12:01.207Z,101998.19
2023-04-16T09:13:02.698Z,101991.22
2023-04-16T09:14:04.750Z,101986.00
2023-04-16T09:15:06.707Z,101992.09
2023-04-16T09:16:09.506Z,101994.72
2023-04-16T09:17:12.064Z,101994.72
2023-04-16T09:18:15.783Z,101995.56
2023-04-16T09:19:17.703Z,101991.19
2023-04-16T09:20:19.890Z,101997.34
2023-04-16T09:21:23.790Z,101996.47
2023-04-16T09:22:25.815Z,101991.19
2023-04-16T09:23:27.265Z,101993.81
2023-04-16T09:24:28.712Z,102008.69
2023-04-16T09:25:34.809Z,101995.59
2023-04-16T09:26:41.144Z,101997.31
2023-04-16T09:27:42.666Z,102006.06
2023-04-16T09:28:46.373Z,101996.44
2023-04-16T09:29:47.864Z,101995.56
2023-04-16T09:30:49.560Z,102002.56
2023-04-16T09:32:17.396Z,102005.19
2023-04-16T09:33:23.352Z,102009.53
2023-04-16T09:34:27.405Z,102001.69
2023-04-16T09:35:44.461Z,102005.19
2023-04-16T09:36:48.375Z,102002.56
2023-04-16T09:37:58.732Z,102004.28
2023-04-16T09:39:00.639Z,102006.94
2023-04-16T09:40:03.770Z,102006.03
2023-04-16T09:41:08.818Z,102002.56
2023-04-16T09:42:12.639Z,102007.81
2023-04-16T09:43:14.913Z,102001.69
2023-04-16T09:44:16.365Z,102009.53
2023-04-16T09:45:17.834Z,102008.69
2023-04-16T09:46:19.517Z,102013.06
2023-04-16T09:47:22.250Z,102014.78
2023-04-16T09:48:30.742Z,102012.16
2023-04-16T09:49:34.482Z,102018.28
2023-04-16T09:50:35.985Z,102006.91
2023-04-16T09:51:37.789Z,102015.66
2023-04-16T09:52:39.330Z,102019.13
2023-04-16T09:53:40.977Z,102022.66
2023-04-16T09:54:54.621Z,102017.41
2023-04-16T09:56:03.230Z,102025.25
2023-04-16T09:57:05.861Z,102022.66
2023-04-16T09:58:07.289Z,102016.53
2023-04-16T09:59:09.799Z,102023.50
2023-04-16T10:00:11.864Z,102020.03
2023-04-16T10:01:13.501Z,102028.75
2023-04-16T10:02:16.394Z,102023.53
2023-04-16T10:03:18.306Z,102025.25
2023-04-16T10:04:20.491Z,102026.13
2023-04-16T10:05:22.042Z,102019.13
2023-04-16T10:06:26.071Z,102029.63
2023-04-16T10:07:33.469Z,102031.38
2023-04-16T10:08:37.118Z,102029.63
2023-04-16T10:09:39.029Z,102031.38
2023-04-16T10:10:41.082Z,102035.75
2023-04-16T10:11:45.911Z,102038.34
2023-04-16T10:12:47.363Z,102032.25
2023-04-16T10:13:49.468Z,102033.97
2023-04-16T10:14:50.964Z,102037.50
2023-04-16T10:15:52.508Z,102044.47
2023-04-16T10:16:55.671Z,102041.00
2023-04-16T10:17:58.072Z,102046.22
2023-04-16T10:18:59.827Z,102046.22
2023-04-16T10:20:02.082Z,102037.47
2023-04-16T10:21:04.209Z,102042.75
2023-04-16T10:22:05.880Z,102046.22
2023-04-16T10:23:07.426Z,102041.84
2023-04-16T10:24:09.910Z,102045.34
2023-04-16T10:25:19.357Z,102047.97
2023-04-16T10:26:32.024Z,102048.84
2023-04-16T10:27:33.780Z,102050.59
2023-04-16T10:28:36.311Z,102051.44
2023-04-16T10:29:37.956Z,102049.72
2023-04-16T10:30:39.919Z,102049.72
2023-04-16T10:31:41.809Z,102055.81
2023-04-16T10:32:44.658Z,102053.19
2023-04-16T10:33:46.671Z,102060.19
2023-04-16T10:34:48.176Z,102052.31
2023-04-16T10:36:04.703Z,102054.94
2023-04-16T10:37:09.032Z,102057.56
2023-04-16T10:38:32.614Z,102051.47
2023-04-16T10:39:37.550Z,102054.06
2023-04-16T10:40:39.231Z,102055.84
2023-04-16T10:41:42.745Z,102050.59
2023-04-16T10:42:53.432Z,102054.94
2023-04-16T10:44:05.755Z,102061.09
2023-04-16T10:45:10.791Z,102056.69
2023-04-16T10:46:19.943Z,102062.81
2023-04-16T10:47:24.557Z,102060.19
2023-04-16T10:48:28.995Z,102063.69
2023-04-16T10:49:35.689Z,102059.31
2023-04-16T10:50:37.553Z,102065.41
2023-04-16T10:51:39.117Z,102067.16
2023-04-16T10:52:40.654Z,102068.06
2023-04-16T10:53:42.187Z,102073.28
2023-04-16T10:54:43.794Z,102061.06
2023-04-16T10:56:12.662Z,102066.31
2023-04-16T10:57:18.331Z,102068.06
2023-04-16T10:58:35.216Z,102071.53
2023-04-16T10:59:37.386Z,102072.41
2023-04-16T11:00:51.888Z,102064.56
2023-04-16T11:01:58.224Z,102067.19
2023-04-16T11:03:02.102Z,102068.03
2023-04-16T11:04:22.080Z,102070.66
2023-04-16T11:05:24.560Z,102067.16
2023-04-16T11:06:28.554Z,102068.94
2023-04-16T11:07:34.057Z,102064.56
2023-04-16T11:08:51.224Z,102068.00
2023-04-16T11:10:00.231Z,102067.16
2023-04-16T11:11:07.882Z,102068.03
2023-04-16T11:12:13.132Z,102068.91
2023-04-16T11:13:15.828Z,102071.53
2023-04-16T11:14:17.369Z,102075.03
2023-04-16T11:15:23.416Z,102068.03
2023-04-16T11:16:25.670Z,102069.78
2023-04-16T11:17:38.976Z,102067.19
2023-04-16T11:18:51.146Z,102066.28
2023-04-16T11:19:53.463Z,102074.16
2023-04-16T11:20:55.459Z,102079.41
2023-04-16T11:21:56.978Z,102073.28
2023-04-16T11:22:58.462Z,102076.75
2023-04-16T11:24:00.150Z,102075.03
2023-04-16T11:25:01.754Z,102080.28
2023-04-16T11:26:03.466Z,102085.50
2023-04-16T11:27:05.444Z,102084.63
2023-04-16T11:28:06.900Z,102082.03
2023-04-16T11:29:13.918Z,102086.38
2023-04-16T11:30:15.621Z,102077.66
2023-04-16T11:31:17.182Z,102082.03
2023-04-16T11:32:24.581Z,102075.91
2023-04-16T11:33:26.362Z,102079.41
2023-04-16T11:34:30.816Z,102080.28
2023-04-16T11:35:32.497Z,102078.53
2023-04-16T11:36:44.118Z,102083.75
2023-04-16T11:37:46.941Z,102073.31
2023-04-16T11:38:48.752Z,102084.66
2023-04-16T11:39:53.319Z,102076.78
2023-04-16T11:40:55.198Z,102075.91
2023-04-16T11:41:56.783Z,102080.28
2023-04-16T11:43:04.976Z,102079.41
2023-04-16T11:44:18.719Z,102077.66
2023-04-16T11:45:20.226Z,102083.75
2023-04-16T11:46:27.562Z,102082.03
2023-04-16T11:47:31.894Z,102082.03
2023-04-16T11:48:53.010Z,102088.13
2023-04-16T11:49:54.490Z,102084.66
2023-04-16T11:50:56.766Z,102080.25
2023-04-16T11:51:58.650Z,102077.63
2023-04-16T11:53:04.652Z,102087.25
2023-04-16T11:54:06.113Z,102089.00
2023-04-16T11:55:07.709Z,102089.88
2023-04-16T11:56:09.298Z,102091.63
2023-04-16T11:57:11.362Z,102091.63
2023-04-16T11:58:13.155Z,102085.50
2023-04-16T11:59:18.971Z,102086.38